Terminal Aerodrome Forecast
Issued by NWS

Current Version | Previous Version | Text Only | Print | Product List | Glossary On
Versions: 1 2 3 4 5 6 7 8 9 10 11 12 13 14 15 16 17 18 19 20 21
000
FTUS46 KHNX 311726
TAFBFL
TAF
KBFL 311726Z 3118/0118 VRB03KT 3SM HZ FEW010
     FM312000 VRB03KT 4SM HZ SKC
     FM011000 VRB03KT 2SM BR SKC=

USA.gov is the U.S. government's official web portal to all federal, state and local government web resources and services.